createdAt,value
2019-04-30T00:00:03.277Z,7.23
2019-04-30T00:02:40.001Z,8.23
2019-04-30T00:05:10.055Z,12.77
2019-04-30T00:07:41.239Z,10.20
2019-04-30T00:10:11.380Z,10.23
2019-04-30T00:12:41.241Z,9.83
2019-04-30T00:15:17.886Z,7.67
2019-04-30T00:17:42.488Z,7.17
2019-04-30T00:20:15.138Z,9.60
2019-04-30T00:22:47.046Z,10.20
2019-04-30T00:25:19.596Z,15.97
2019-04-30T00:27:48.545Z,11.83
2019-04-30T00:30:18.555Z,12.67
2019-04-30T00:32:48.200Z,9.10
2019-04-30T00:35:19.757Z,13.70
2019-04-30T00:37:52.010Z,11.00
2019-04-30T00:40:21.634Z,9.47
2019-04-30T00:42:52.768Z,11.77
2019-04-30T00:45:22.786Z,8.40
2019-04-30T00:47:52.759Z,10.80
2019-04-30T00:50:22.437Z,13.33
2019-04-30T00:52:52.141Z,12.07
2019-04-30T00:55:21.853Z,10.03
2019-04-30T00:57:51.619Z,12.87
2019-04-30T01:00:25.967Z,11.30
2019-04-30T01:03:09.374Z,8.73
2019-04-30T01:05:39.628Z,9.83
2019-04-30T01:08:09.888Z,11.07
2019-04-30T01:10:39.633Z,11.13
2019-04-30T01:13:11.972Z,14.50
2019-04-30T01:15:43.888Z,12.23
2019-04-30T01:18:13.324Z,12.77
2019-04-30T01:20:43.053Z,13.27
2019-04-30T01:23:15.745Z,14.33
2019-04-30T01:25:49.893Z,12.60
2019-04-30T01:28:23.140Z,12.27
2019-04-30T01:30:49.554Z,12.60
2019-04-30T01:33:19.294Z,13.33
2019-04-30T01:35:50.999Z,12.57
2019-04-30T01:38:20.748Z,16.87
2019-04-30T01:40:51.142Z,15.30
2019-04-30T01:43:30.480Z,15.80
2019-04-30T01:45:52.612Z,15.77
2019-04-30T01:48:23.393Z,16.73
2019-04-30T01:50:53.122Z,14.27
2019-04-30T01:53:22.804Z,13.70
2019-04-30T01:56:12.906Z,15.53
2019-04-30T01:58:49.527Z,13.87
2019-04-30T02:01:21.312Z,12.00
2019-04-30T02:03:50.942Z,11.87
2019-04-30T02:06:20.672Z,14.93
2019-04-30T02:08:50.469Z,11.87
2019-04-30T02:11:20.178Z,12.53
2019-04-30T02:13:49.817Z,12.13
2019-04-30T02:16:21.072Z,14.50
2019-04-30T02:18:50.969Z,15.53
2019-04-30T02:21:20.681Z,17.93
2019-04-30T02:23:50.458Z,19.27
2019-04-30T02:26:20.188Z,20.17
2019-04-30T02:28:50.286Z,15.57
2019-04-30T02:31:22.862Z,21.10
2019-04-30T02:33:54.317Z,16.10
2019-04-30T02:36:34.788Z,18.87
2019-04-30T02:39:06.237Z,17.73
2019-04-30T02:41:40.857Z,16.73
2019-04-30T02:44:10.265Z,22.03
2019-04-30T02:46:41.691Z,20.40
2019-04-30T02:49:12.891Z,19.40
2019-04-30T02:51:43.959Z,18.00
2019-04-30T02:54:23.245Z,17.70
2019-04-30T02:57:06.951Z,17.90
2019-04-30T02:59:40.283Z,18.77
2019-04-30T03:02:11.691Z,20.17
2019-04-30T03:04:42.706Z,20.60
2019-04-30T03:07:12.435Z,18.77
2019-04-30T03:09:42.405Z,19.37
2019-04-30T03:12:12.157Z,18.17
2019-04-30T03:14:41.858Z,20.27
2019-04-30T03:17:24.166Z,20.63
2019-04-30T03:20:03.102Z,21.60
2019-04-30T03:22:30.465Z,18.53
2019-04-30T03:25:00.146Z,17.60
2019-04-30T03:27:30.259Z,18.77
2019-04-30T03:30:00.214Z,18.43
2019-04-30T03:32:31.789Z,21.80
2019-04-30T03:35:03.265Z,18.73
2019-04-30T03:37:32.715Z,22.67
2019-04-30T03:40:02.399Z,21.63
2019-04-30T03:42:32.768Z,22.03
2019-04-30T03:45:02.501Z,19.57
2019-04-30T03:47:32.217Z,22.57
2019-04-30T03:50:02.125Z,16.83
2019-04-30T03:52:32.018Z,19.20
2019-04-30T03:55:03.154Z,20.20
2019-04-30T03:57:32.934Z,22.47
2019-04-30T04:00:02.628Z,19.40
2019-04-30T04:02:40.871Z,18.07
2019-04-30T04:05:29.811Z,18.33
2019-04-30T04:08:25.134Z,19.60
2019-04-30T04:11:00.526Z,20.20
2019-04-30T04:13:33.020Z,19.00
2019-04-30T04:16:01.586Z,19.50
2019-04-30T04:18:32.254Z,18.80
2019-04-30T04:21:11.540Z,19.17
2019-04-30T04:23:34.326Z,19.83
2019-04-30T04:26:04.967Z,18.03
2019-04-30T04:28:34.684Z,17.57
2019-04-30T04:31:04.890Z,22.00
2019-04-30T04:33:34.696Z,20.53
2019-04-30T04:36:05.142Z,18.43
2019-04-30T04:38:35.008Z,20.37
2019-04-30T04:41:05.053Z,15.63
2019-04-30T04:43:34.771Z,18.40
2019-04-30T04:46:04.890Z,16.80
2019-04-30T04:48:34.624Z,19.13
2019-04-30T04:51:05.078Z,18.70
2019-04-30T04:53:34.830Z,18.10
2019-04-30T04:56:04.960Z,19.60
2019-04-30T04:58:35.669Z,19.23
2019-04-30T05:01:05.476Z,17.33
2019-04-30T05:03:39.765Z,14.60
2019-04-30T05:06:11.499Z,16.27
2019-04-30T05:08:40.258Z,15.17
2019-04-30T05:11:10.093Z,13.43
2019-04-30T05:13:39.746Z,15.23
2019-04-30T05:16:09.470Z,14.23
2019-04-30T05:18:39.250Z,16.07
2019-04-30T05:21:08.983Z,16.12
2019-04-30T05:23:42.478Z,15.23
2019-04-30T05:26:11.256Z,20.67
2019-04-30T05:28:41.406Z,14.17
2019-04-30T05:31:11.237Z,16.75
2019-04-30T05:33:40.847Z,16.62
2019-04-30T05:36:10.480Z,15.37
2019-04-30T05:38:41.205Z,14.68
2019-04-30T05:41:10.858Z,16.10
2019-04-30T05:43:40.961Z,16.17
2019-04-30T05:46:14.055Z,16.87
2019-04-30T05:48:42.965Z,19.10
2019-04-30T05:51:12.589Z,17.15
2019-04-30T05:53:42.580Z,16.30
2019-04-30T05:56:12.315Z,17.98
2019-04-30T05:58:42.120Z,20.90
2019-04-30T06:01:11.754Z,15.13
2019-04-30T06:03:41.414Z,18.30
2019-04-30T06:06:11.517Z,19.30
2019-04-30T06:08:49.049Z,19.70
2019-04-30T06:11:39.335Z,20.55
2019-04-30T06:14:28.631Z,19.55
2019-04-30T06:17:23.790Z,20.68
2019-04-30T06:19:53.409Z,22.90
2019-04-30T06:22:23.809Z,18.67
2019-04-30T06:24:53.582Z,19.07
2019-04-30T06:27:23.210Z,21.20
2019-04-30T06:29:52.970Z,20.40
2019-04-30T06:32:22.665Z,19.87
2019-04-30T06:34:52.465Z,20.85
2019-04-30T06:37:22.657Z,21.48
2019-04-30T06:39:52.377Z,21.85
2019-04-30T06:42:22.593Z,22.10
2019-04-30T06:44:52.780Z,22.58
2019-04-30T06:47:32.814Z,23.75
2019-04-30T06:49:54.234Z,19.75
2019-04-30T06:52:23.878Z,22.30
2019-04-30T06:54:53.530Z,22.93
2019-04-30T06:57:23.213Z,21.30
2019-04-30T06:59:52.825Z,20.27
2019-04-30T07:02:22.482Z,20.80
2019-04-30T07:04:52.350Z,22.40
2019-04-30T07:07:30.780Z,23.63
2019-04-30T07:10:02.743Z,24.37
2019-04-30T07:12:51.457Z,25.75
2019-04-30T07:15:21.373Z,22.62
2019-04-30T07:17:51.033Z,19.80
2019-04-30T07:20:20.656Z,22.35
2019-04-30T07:22:59.073Z,26.60
2019-04-30T07:25:22.384Z,22.22
2019-04-30T07:27:52.046Z,30.25
2019-04-30T07:30:21.736Z,25.68
2019-04-30T07:32:51.365Z,25.32
2019-04-30T07:35:21.052Z,21.17
2019-04-30T07:37:54.631Z,22.13
2019-04-30T07:40:22.077Z,20.27
2019-04-30T07:42:51.720Z,24.37
2019-04-30T07:45:25.438Z,20.23
2019-04-30T07:47:52.735Z,23.75
2019-04-30T07:50:23.071Z,23.80
2019-04-30T07:53:04.716Z,24.55
2019-04-30T07:55:24.602Z,21.55
2019-04-30T07:57:54.264Z,22.80
2019-04-30T08:02:51.167Z,20.10
2019-04-30T08:05:29.731Z,20.95
2019-04-30T08:08:16.686Z,23.50
2019-04-30T08:10:30.183Z,24.18
2019-04-30T08:13:08.648Z,24.40
2019-04-30T08:15:31.177Z,24.32
2019-04-30T08:18:05.555Z,22.93
2019-04-30T08:20:33.097Z,26.35
2019-04-30T08:23:13.355Z,25.57
2019-04-30T08:25:34.205Z,23.40
2019-04-30T08:28:05.097Z,24.07
2019-04-30T08:30:34.761Z,23.98
2019-04-30T08:33:04.871Z,24.50
2019-04-30T08:35:34.609Z,25.88
2019-04-30T08:38:04.957Z,22.80
2019-04-30T08:40:34.661Z,26.15
2019-04-30T08:43:04.990Z,25.30
2019-04-30T08:45:34.909Z,21.80
2019-04-30T08:48:05.821Z,23.87
2019-04-30T08:50:35.482Z,20.27
2019-04-30T08:53:05.189Z,23.95
2019-04-30T08:55:34.877Z,21.45
2019-04-30T08:58:09.766Z,23.65
2019-04-30T09:00:38.440Z,20.12
2019-04-30T09:03:09.378Z,21.52
2019-04-30T09:06:16.977Z,25.72
2019-04-30T09:08:48.996Z,24.52
2019-04-30T09:11:24.747Z,23.42
2019-04-30T09:13:50.123Z,22.62
2019-04-30T09:16:19.842Z,22.62
2019-04-30T09:18:51.177Z,21.87
2019-04-30T09:21:20.976Z,25.35
2019-04-30T09:23:52.822Z,26.57
2019-04-30T09:26:22.048Z,25.88
2019-04-30T09:28:52.520Z,24.47
2019-04-30T09:31:22.142Z,24.27
2019-04-30T09:33:52.857Z,23.67
2019-04-30T09:36:22.561Z,20.40
2019-04-30T09:38:52.244Z,21.52
2019-04-30T09:41:21.963Z,22.67
2019-04-30T09:43:51.680Z,23.02
2019-04-30T09:46:26.731Z,21.77
2019-04-30T09:48:52.646Z,24.30
2019-04-30T09:51:24.314Z,23.00
2019-04-30T09:53:58.811Z,23.55
2019-04-30T09:56:25.037Z,23.67
2019-04-30T09:58:55.721Z,24.12
2019-04-30T10:01:26.474Z,23.80
2019-04-30T10:03:56.461Z,26.90
2019-04-30T10:06:37.035Z,23.80
2019-04-30T10:08:59.631Z,24.85
2019-04-30T10:11:52.766Z,25.05
2019-04-30T10:14:22.405Z,25.00
2019-04-30T10:17:04.414Z,24.57
2019-04-30T10:19:34.079Z,21.77
2019-04-30T10:22:03.785Z,21.15
2019-04-30T10:24:34.017Z,25.60
2019-04-30T10:27:06.914Z,21.60
2019-04-30T10:29:35.669Z,21.95
2019-04-30T10:32:05.402Z,22.90
2019-04-30T10:34:35.074Z,21.17
2019-04-30T10:37:05.058Z,24.72
2019-04-30T10:39:34.787Z,24.40
2019-04-30T10:42:05.201Z,23.83
2019-04-30T10:44:34.946Z,24.25
2019-04-30T10:47:05.047Z,22.73
2019-04-30T10:49:35.679Z,23.15
2019-04-30T10:52:06.033Z,24.45
2019-04-30T10:54:38.790Z,25.02
2019-04-30T10:57:08.675Z,21.87
2019-04-30T10:59:40.704Z,21.40
2019-04-30T11:02:10.334Z,21.65
2019-04-30T11:04:40.056Z,27.10
2019-04-30T11:07:09.849Z,22.95
2019-04-30T11:09:39.573Z,21.90
2019-04-30T11:12:09.571Z,20.97
2019-04-30T11:14:39.421Z,24.00
2019-04-30T11:17:09.894Z,21.27
2019-04-30T11:19:39.923Z,22.00
2019-04-30T11:22:10.295Z,21.75
2019-04-30T11:24:54.083Z,22.42
2019-04-30T11:27:12.611Z,22.70
2019-04-30T11:29:42.843Z,22.85
2019-04-30T11:32:20.077Z,23.47
2019-04-30T11:34:50.082Z,22.65
2019-04-30T11:37:20.177Z,23.52
2019-04-30T11:39:49.926Z,22.85
2019-04-30T11:42:19.709Z,24.87
2019-04-30T11:44:49.446Z,22.37
2019-04-30T11:47:32.306Z,29.85
2019-04-30T11:50:02.770Z,24.40
2019-04-30T11:52:32.842Z,24.07
2019-04-30T11:55:02.613Z,21.50
2019-04-30T11:57:33.461Z,22.10
2019-04-30T12:00:03.420Z,20.90
2019-04-30T12:02:41.254Z,22.30
2019-04-30T12:05:13.255Z,20.35
2019-04-30T12:08:03.145Z,22.90
2019-04-30T12:10:54.735Z,25.23
2019-04-30T12:13:29.871Z,22.10
2019-04-30T12:15:59.935Z,26.52
2019-04-30T12:18:29.965Z,23.60
2019-04-30T12:20:59.667Z,23.22
2019-04-30T12:23:30.301Z,22.58
2019-04-30T12:26:02.681Z,23.67
2019-04-30T12:28:31.292Z,27.17
2019-04-30T12:31:02.029Z,23.55
2019-04-30T12:33:34.697Z,21.68
2019-04-30T12:36:06.596Z,26.33
2019-04-30T12:38:37.284Z,24.37
2019-04-30T12:41:07.023Z,25.10
2019-04-30T12:43:36.709Z,22.77
2019-04-30T12:46:06.459Z,25.95
2019-04-30T12:49:01.382Z,28.32
2019-04-30T12:51:45.593Z,28.23
2019-04-30T12:54:16.886Z,28.05
2019-04-30T12:57:04.430Z,23.95
2019-04-30T12:59:34.248Z,23.55
2019-04-30T13:02:04.954Z,26.07
2019-04-30T13:04:34.612Z,24.92
2019-04-30T13:07:05.578Z,24.72
2019-04-30T13:09:36.228Z,23.77
2019-04-30T13:12:06.435Z,25.65
2019-04-30T13:14:51.126Z,34.20
2019-04-30T13:17:08.674Z,44.03
2019-04-30T13:19:38.349Z,39.38
2019-04-30T13:22:09.084Z,27.70
2019-04-30T13:24:39.997Z,22.77
2019-04-30T13:27:10.745Z,21.33
2019-04-30T13:29:59.482Z,21.65
2019-04-30T13:32:32.880Z,21.20
2019-04-30T13:35:02.619Z,24.40
2019-04-30T13:37:41.601Z,20.88
2019-04-30T13:40:28.852Z,24.05
2019-04-30T13:42:58.626Z,17.12
2019-04-30T13:45:29.360Z,19.85
2019-04-30T13:47:59.291Z,21.60
2019-04-30T13:50:29.941Z,21.00
2019-04-30T13:52:59.591Z,21.15
2019-04-30T13:55:37.211Z,28.60
2019-04-30T13:58:00.609Z,26.00
2019-04-30T14:00:30.859Z,21.35
2019-04-30T14:03:22.957Z,26.80
2019-04-30T14:05:52.590Z,26.50
2019-04-30T14:08:30.813Z,22.98
2019-04-30T14:11:00.769Z,19.25
2019-04-30T14:13:30.432Z,20.62
2019-04-30T14:16:00.189Z,19.60
2019-04-30T14:18:33.806Z,22.87
2019-04-30T14:21:01.421Z,17.30
2019-04-30T14:23:31.194Z,18.42
2019-04-30T14:26:01.161Z,20.45
2019-04-30T14:28:30.982Z,18.65
2019-04-30T14:31:00.700Z,17.32
2019-04-30T14:33:30.406Z,18.65
2019-04-30T14:36:00.786Z,19.50
2019-04-30T14:38:30.608Z,16.62
2019-04-30T14:41:01.504Z,20.72
2019-04-30T14:44:03.126Z,21.15
2019-04-30T14:47:11.620Z,19.05
2019-04-30T14:50:02.648Z,18.52
2019-04-30T14:52:29.805Z,24.30
2019-04-30T14:55:36.943Z,23.70
2019-04-30T14:58:25.721Z,17.15
2019-04-30T15:01:02.470Z,20.50
2019-04-30T15:03:33.357Z,18.35
2019-04-30T15:06:03.184Z,23.35
2019-04-30T15:08:32.907Z,21.15
2019-04-30T15:11:03.836Z,23.10
2019-04-30T15:13:33.788Z,18.70
2019-04-30T15:16:03.627Z,18.73
2019-04-30T15:18:33.265Z,16.65
2019-04-30T15:21:02.941Z,19.87
2019-04-30T15:23:58.559Z,21.05
2019-04-30T15:26:25.089Z,21.85
2019-04-30T15:28:53.746Z,20.27
2019-04-30T15:31:23.632Z,18.15
2019-04-30T15:34:10.831Z,18.25
2019-04-30T15:36:39.370Z,20.37
2019-04-30T15:39:48.994Z,18.25
2019-04-30T15:42:21.432Z,20.72
2019-04-30T15:44:51.080Z,18.20
2019-04-30T15:47:22.682Z,18.98
2019-04-30T15:49:52.346Z,18.25
2019-04-30T15:52:23.109Z,19.87
2019-04-30T15:54:52.753Z,21.15
2019-04-30T15:57:22.465Z,20.08
2019-04-30T15:59:51.653Z,22.70
2019-04-30T16:02:30.002Z,17.77
2019-04-30T16:05:12.168Z,17.65
2019-04-30T16:07:58.732Z,17.67
2019-04-30T16:10:46.516Z,19.15
2019-04-30T16:13:19.559Z,19.62
2019-04-30T16:15:49.343Z,19.05
2019-04-30T16:18:19.625Z,17.32
2019-04-30T16:20:49.861Z,17.17
2019-04-30T16:23:20.839Z,28.00
2019-04-30T16:25:50.482Z,18.95
2019-04-30T16:28:21.195Z,17.00
2019-04-30T16:30:51.034Z,20.00
2019-04-30T16:33:21.722Z,19.20
2019-04-30T16:35:51.398Z,15.83
2019-04-30T16:38:21.405Z,16.42
2019-04-30T16:40:51.064Z,18.17
2019-04-30T16:43:20.750Z,16.73
2019-04-30T16:45:50.484Z,19.87
2019-04-30T16:48:21.230Z,18.42
2019-04-30T16:50:51.295Z,17.12
2019-04-30T16:53:21.047Z,16.45
2019-04-30T16:55:50.759Z,20.85
2019-04-30T16:58:20.541Z,18.23
2019-04-30T17:00:50.417Z,15.08
2019-04-30T17:03:28.724Z,22.00
2019-04-30T17:06:04.589Z,14.23
2019-04-30T17:08:39.237Z,18.10
2019-04-30T17:11:14.906Z,18.52
2019-04-30T17:13:51.647Z,16.52
2019-04-30T17:16:22.638Z,17.32
2019-04-30T17:18:52.613Z,13.65
2019-04-30T17:21:22.662Z,15.45
2019-04-30T17:23:52.480Z,17.27
2019-04-30T17:26:23.334Z,19.12
2019-04-30T17:28:53.006Z,24.07
2019-04-30T17:31:22.689Z,15.23
2019-04-30T17:33:54.269Z,16.02
2019-04-30T17:36:24.000Z,16.60
2019-04-30T17:38:53.708Z,14.03
2019-04-30T17:41:23.452Z,14.98
2019-04-30T17:43:54.359Z,15.32
2019-04-30T17:46:24.068Z,18.55
2019-04-30T17:48:53.793Z,15.80
2019-04-30T17:51:23.485Z,16.67
2019-04-30T17:54:11.494Z,16.87
2019-04-30T17:56:44.306Z,15.63
2019-04-30T17:59:14.160Z,16.10
2019-04-30T18:01:50.490Z,13.55
2019-04-30T18:04:22.142Z,16.82
2019-04-30T18:06:51.742Z,16.27
2019-04-30T18:09:21.846Z,22.50
2019-04-30T18:11:51.622Z,16.27
2019-04-30T18:14:21.521Z,15.90
2019-04-30T18:16:51.236Z,15.25
2019-04-30T18:19:49.777Z,14.68
2019-04-30T18:22:31.742Z,15.28
2019-04-30T18:25:23.446Z,19.62
2019-04-30T18:27:59.535Z,20.20
2019-04-30T18:30:33.656Z,15.35
2019-04-30T18:33:05.362Z,16.70
2019-04-30T18:35:38.678Z,20.62
2019-04-30T18:38:09.764Z,17.20
2019-04-30T18:40:39.919Z,17.07
2019-04-30T18:43:10.101Z,20.00
2019-04-30T18:45:39.824Z,19.80
2019-04-30T18:48:10.685Z,18.40
2019-04-30T18:50:40.401Z,20.37
2019-04-30T18:53:15.520Z,24.20
2019-04-30T18:55:45.700Z,19.17
2019-04-30T18:58:15.713Z,22.45
2019-04-30T19:00:45.528Z,18.05
2019-04-30T19:03:15.241Z,18.25
2019-04-30T19:05:49.222Z,22.55
2019-04-30T19:08:39.493Z,18.80
2019-04-30T19:11:28.939Z,20.52
2019-04-30T19:14:19.394Z,22.52
2019-04-30T19:17:11.186Z,18.62
2019-04-30T19:20:06.238Z,21.25
2019-04-30T19:22:36.272Z,21.50
2019-04-30T19:25:06.390Z,20.55
2019-04-30T19:27:36.375Z,19.62
2019-04-30T19:30:06.414Z,19.62
2019-04-30T19:32:36.186Z,25.45
2019-04-30T19:35:06.465Z,20.20
2019-04-30T19:37:36.183Z,20.82
2019-04-30T19:40:08.931Z,21.77
2019-04-30T19:42:39.569Z,19.67
2019-04-30T19:45:12.410Z,19.77
2019-04-30T19:47:41.200Z,21.35
2019-04-30T19:50:14.028Z,25.10
2019-04-30T19:52:42.976Z,28.12
2019-04-30T19:55:13.173Z,30.70
2019-04-30T19:57:42.851Z,32.00
2019-04-30T20:00:13.588Z,27.17
2019-04-30T20:02:43.306Z,30.85
2019-04-30T20:05:13.145Z,27.17
2019-04-30T20:07:49.314Z,30.82
2019-04-30T20:10:19.657Z,29.12
2019-04-30T20:12:49.893Z,30.82
2019-04-30T20:15:24.336Z,30.05
2019-04-30T20:17:51.986Z,30.82
2019-04-30T20:20:22.100Z,29.67
2019-04-30T20:22:52.100Z,29.00
2019-04-30T20:25:21.955Z,35.28
2019-04-30T20:27:51.660Z,29.75
2019-04-30T20:30:21.532Z,30.00
2019-04-30T20:32:52.418Z,35.75
2019-04-30T20:35:22.155Z,33.75
2019-04-30T20:38:29.311Z,29.10
2019-04-30T20:41:02.785Z,26.68
2019-04-30T20:43:30.574Z,29.27
2019-04-30T20:46:00.827Z,31.25
2019-04-30T20:48:30.797Z,29.32
2019-04-30T20:51:01.414Z,27.32
2019-04-30T20:53:31.345Z,31.02
2019-04-30T20:56:01.224Z,27.55
2019-04-30T20:58:30.869Z,29.87
2019-04-30T21:01:06.131Z,32.17
2019-04-30T21:03:32.242Z,31.93
2019-04-30T21:06:01.938Z,32.13
2019-04-30T21:08:31.684Z,29.25
2019-04-30T21:11:01.445Z,27.67
2019-04-30T21:13:32.132Z,28.23
2019-04-30T21:16:01.813Z,34.67
2019-04-30T21:18:32.534Z,31.75
2019-04-30T21:21:02.412Z,26.55
2019-04-30T21:23:32.147Z,30.60
2019-04-30T21:26:01.959Z,31.90
2019-04-30T21:28:31.592Z,32.83
2019-04-30T21:31:20.490Z,28.57
2019-04-30T21:33:52.057Z,28.23
2019-04-30T21:36:23.697Z,32.60
2019-04-30T21:38:53.576Z,30.45
2019-04-30T21:41:24.379Z,27.00
2019-04-30T21:43:54.041Z,28.52
2019-04-30T21:46:23.813Z,27.02
2019-04-30T21:48:53.552Z,29.25
2019-04-30T21:51:24.265Z,33.48
2019-04-30T21:53:54.018Z,28.85
2019-04-30T21:56:23.785Z,32.17
2019-04-30T21:58:53.526Z,33.38
2019-04-30T22:01:26.513Z,30.23
2019-04-30T22:03:57.476Z,30.68
2019-04-30T22:06:27.131Z,31.62
2019-04-30T22:08:58.568Z,31.60
2019-04-30T22:11:29.638Z,32.20
2019-04-30T22:13:59.606Z,33.30
2019-04-30T22:16:30.283Z,35.08
2019-04-30T22:18:59.978Z,30.65
2019-04-30T22:21:30.362Z,33.05
2019-04-30T22:24:00.269Z,30.45
2019-04-30T22:26:29.956Z,32.20
2019-04-30T22:28:59.649Z,34.95
2019-04-30T22:31:29.734Z,35.33
2019-04-30T22:33:59.653Z,33.75
2019-04-30T22:36:34.157Z,35.13
2019-04-30T22:39:21.894Z,31.12
2019-04-30T22:41:53.174Z,34.00
2019-04-30T22:44:22.881Z,34.30
2019-04-30T22:46:52.620Z,38.48
2019-04-30T22:49:22.421Z,36.35
2019-04-30T22:51:52.229Z,32.90
2019-04-30T22:54:21.917Z,34.75
2019-04-30T22:56:51.665Z,33.25
2019-04-30T22:59:21.417Z,36.17
2019-04-30T23:02:06.842Z,34.75
2019-04-30T23:04:41.671Z,34.78
2019-04-30T23:07:11.381Z,34.60
2019-04-30T23:09:41.390Z,36.75
2019-04-30T23:12:11.194Z,32.58
2019-04-30T23:14:41.320Z,35.98
2019-04-30T23:17:11.107Z,36.13
2019-04-30T23:19:40.869Z,41.45
2019-04-30T23:22:10.570Z,40.45
2019-04-30T23:24:40.285Z,33.58
2019-04-30T23:27:10.143Z,34.83
2019-04-30T23:29:39.961Z,32.83
2019-04-30T23:32:13.405Z,36.98
2019-04-30T23:34:41.988Z,40.03
2019-04-30T23:37:14.244Z,37.38
2019-04-30T23:39:44.045Z,39.67
2019-04-30T23:42:13.805Z,34.88
2019-04-30T23:44:43.447Z,37.17
2019-04-30T23:47:13.205Z,35.65
2019-04-30T23:49:42.903Z,35.78
2019-04-30T23:52:12.621Z,41.55
2019-04-30T23:54:42.386Z,40.85
2019-04-30T23:57:12.061Z,41.73
2019-04-30T23:59:42.719Z,36.23
